sensor_id;sensor_type;location;lat;lon;timestamp;pressure;altitude;pressure_sealevel;temperature;humidity
49877;BME280;35771;48.978;9.294;2023-02-02T00:00:15;99617.22;;;4.43;100.00
49877;BME280;35771;48.978;9.294;2023-02-02T00:02:42;99604.44;;;4.35;100.00
49877;BME280;35771;48.978;9.294;2023-02-02T00:05:08;99633.69;;;4.50;100.00
49877;BME280;35771;48.978;9.294;2023-02-02T00:07:35;99608.69;;;4.38;100.00
49877;BME280;35771;48.978;9.294;2023-02-02T00:10:01;99622.22;;;4.48;100.00
49877;BME280;35771;48.978;9.294;2023-02-02T00:12:29;99598.78;;;4.38;100.00
49877;BME280;35771;48.978;9.294;2023-02-02T00:14:59;99612.88;;;4.52;100.00
49877;BME280;35771;48.978;9.294;2023-02-02T00:17:25;99610.47;;;4.49;100.00
49877;BME280;35771;48.978;9.294;2023-02-02T00:19:52;99595.56;;;4.45;100.00
49877;BME280;35771;48.978;9.294;2023-02-02T00:22:18;99614.56;;;4.53;100.00
49877;BME280;35771;48.978;9.294;2023-02-02T00:24:45;99603.91;;;4.41;100.00
49877;BME280;35771;48.978;9.294;2023-02-02T00:27:12;99622.25;;;4.57;100.00
49877;BME280;35771;48.978;9.294;2023-02-02T00:29:39;99601.50;;;4.48;100.00
49877;BME280;35771;48.978;9.294;2023-02-02T00:32:06;99593.72;;;4.45;100.00
49877;BME280;35771;48.978;9.294;2023-02-02T00:34:32;99612.75;;;4.53;100.00
49877;BME280;35771;48.978;9.294;2023-02-02T00:36:59;99591.75;;;4.47;100.00
49877;BME280;35771;48.978;9.294;2023-02-02T00:39:25;99611.59;;;4.56;100.00
49877;BME280;35771;48.978;9.294;2023-02-02T00:41:52;99582.78;;;4.37;100.00
49877;BME280;35771;48.978;9.294;2023-02-02T00:44:19;99596.94;;;4.39;100.00
49877;BME280;35771;48.978;9.294;2023-02-02T00:47:04;99603.38;;;4.48;100.00
49877;BME280;35771;48.978;9.294;2023-02-02T00:49:31;99608.75;;;4.48;100.00
49877;BME280;35771;48.978;9.294;2023-02-02T00:51:58;99595.69;;;4.43;100.00
49877;BME280;35771;48.978;9.294;2023-02-02T00:54:25;99608.34;;;4.52;100.00
49877;BME280;35771;48.978;9.294;2023-02-02T00:56:51;99589.31;;;4.44;100.00
49877;BME280;35771;48.978;9.294;2023-02-02T00:59:18;99588.31;;;4.45;100.00
49877;BME280;35771;48.978;9.294;2023-02-02T01:01:44;99605.25;;;4.57;100.00
49877;BME280;35771;48.978;9.294;2023-02-02T01:04:12;99592.00;;;4.44;100.00
49877;BME280;35771;48.978;9.294;2023-02-02T01:06:39;99630.06;;;4.60;100.00
49877;BME280;35771;48.978;9.294;2023-02-02T01:09:06;99586.63;;;4.44;100.00
49877;BME280;35771;48.978;9.294;2023-02-02T01:11:33;99594.69;;;4.44;100.00
49877;BME280;35771;48.978;9.294;2023-02-02T01:13:59;99590.44;;;4.41;100.00
49877;BME280;35771;48.978;9.294;2023-02-02T01:16:27;99607.63;;;4.50;100.00
49877;BME280;35771;48.978;9.294;2023-02-02T01:18:54;99613.06;;;4.60;100.00
49877;BME280;35771;48.978;9.294;2023-02-02T01:21:22;99596.53;;;4.43;100.00
49877;BME280;35771;48.978;9.294;2023-02-02T01:23:48;99608.00;;;4.46;100.00
49877;BME280;35771;48.978;9.294;2023-02-02T01:26:15;99624.50;;;4.52;100.00
49877;BME280;35771;48.978;9.294;2023-02-02T01:28:42;99599.22;;;4.43;100.00
49877;BME280;35771;48.978;9.294;2023-02-02T01:31:10;99616.38;;;4.42;100.00
49877;BME280;35771;48.978;9.294;2023-02-02T01:33:37;99608.16;;;4.44;100.00
49877;BME280;35771;48.978;9.294;2023-02-02T01:36:09;99608.88;;;4.46;100.00
49877;BME280;35771;48.978;9.294;2023-02-02T01:38:37;99620.09;;;4.51;100.00
49877;BME280;35771;48.978;9.294;2023-02-02T01:41:05;99617.38;;;4.41;100.00
49877;BME280;35771;48.978;9.294;2023-02-02T01:43:50;99624.50;;;4.52;100.00
49877;BME280;35771;48.978;9.294;2023-02-02T01:46:20;99630.03;;;4.51;100.00
49877;BME280;35771;48.978;9.294;2023-02-02T01:48:50;99614.28;;;4.46;100.00
49877;BME280;35771;48.978;9.294;2023-02-02T01:51:20;99585.59;;;4.35;100.00
49877;BME280;35771;48.978;9.294;2023-02-02T01:53:50;99622.50;;;4.54;100.00
49877;BME280;35771;48.978;9.294;2023-02-02T01:56:23;99621.81;;;4.52;100.00
49877;BME280;35771;48.978;9.294;2023-02-02T01:58:52;99588.56;;;4.32;100.00
49877;BME280;35771;48.978;9.294;2023-02-02T02:01:18;99589.28;;;4.34;100.00
49877;BME280;35771;48.978;9.294;2023-02-02T02:03:45;99566.44;;;4.29;100.00
49877;BME280;35771;48.978;9.294;2023-02-02T02:06:14;99585.13;;;4.30;100.00
49877;BME280;35771;48.978;9.294;2023-02-02T02:08:46;99599.09;;;4.45;100.00
49877;BME280;35771;48.978;9.294;2023-02-02T02:11:17;99587.28;;;4.36;100.00
49877;BME280;35771;48.978;9.294;2023-02-02T02:13:45;99610.34;;;4.50;100.00
49877;BME280;35771;48.978;9.294;2023-02-02T02:16:39;99602.34;;;4.39;100.00
49877;BME280;35771;48.978;9.294;2023-02-02T02:19:26;99616.56;;;4.51;100.00
49877;BME280;35771;48.978;9.294;2023-02-02T02:22:03;99586.03;;;4.40;100.00
49877;BME280;35771;48.978;9.294;2023-02-02T02:25:17;99601.94;;;4.43;100.00
49877;BME280;35771;48.978;9.294;2023-02-02T02:28:27;99597.66;;;4.41;100.00
49877;BME280;35771;48.978;9.294;2023-02-02T02:31:15;99604.63;;;4.43;100.00
49877;BME280;35771;48.978;9.294;2023-02-02T02:33:48;99616.56;;;4.51;100.00
49877;BME280;35771;48.978;9.294;2023-02-02T02:36:28;99580.22;;;4.35;100.00
49877;BME280;35771;48.978;9.294;2023-02-02T02:39:04;99577.66;;;4.34;100.00
49877;BME280;35771;48.978;9.294;2023-02-02T02:41:38;99590.13;;;4.35;100.00
49877;BME280;35771;48.978;9.294;2023-02-02T02:44:09;99597.94;;;4.38;100.00
49877;BME280;35771;48.978;9.294;2023-02-02T02:46:37;99602.34;;;4.39;100.00
49877;BME280;35771;48.978;9.294;2023-02-02T02:49:07;99607.03;;;4.47;100.00
49877;BME280;35771;48.978;9.294;2023-02-02T02:51:43;99587.13;;;4.28;100.00
49877;BME280;35771;48.978;9.294;2023-02-02T02:54:11;99605.88;;;4.39;100.00
49877;BME280;35771;48.978;9.294;2023-02-02T02:56:47;99608.00;;;4.36;100.00
49877;BME280;35771;48.978;9.294;2023-02-02T02:59:25;99619.78;;;4.45;100.00
49877;BME280;35771;48.978;9.294;2023-02-02T03:02:03;99594.09;;;4.31;100.00
49877;BME280;35771;48.978;9.294;2023-02-02T03:04:40;99592.25;;;4.31;100.00
49877;BME280;35771;48.978;9.294;2023-02-02T03:07:19;99595.75;;;4.22;100.00
49877;BME280;35771;48.978;9.294;2023-02-02T03:09:48;99589.75;;;4.18;100.00
49877;BME280;35771;48.978;9.294;2023-02-02T03:12:16;99589.94;;;4.27;100.00
49877;BME280;35771;48.978;9.294;2023-02-02T03:14:43;99606.28;;;4.35;100.00
49877;BME280;35771;48.978;9.294;2023-02-02T03:17:10;99613.63;;;4.33;100.00
49877;BME280;35771;48.978;9.294;2023-02-02T03:19:37;99596.03;;;4.29;100.00
49877;BME280;35771;48.978;9.294;2023-02-02T03:22:04;99597.06;;;4.28;100.00
49877;BME280;35771;48.978;9.294;2023-02-02T03:24:31;99597.19;;;4.26;100.00
49877;BME280;35771;48.978;9.294;2023-02-02T03:26:57;99618.91;;;4.44;100.00
49877;BME280;35771;48.978;9.294;2023-02-02T03:29:24;99607.44;;;4.42;100.00
49877;BME280;35771;48.978;9.294;2023-02-02T03:31:50;99590.38;;;4.32;100.00
49877;BME280;35771;48.978;9.294;2023-02-02T03:34:17;99600.06;;;4.44;100.00
49877;BME280;35771;48.978;9.294;2023-02-02T03:36:45;99599.91;;;4.36;100.00
49877;BME280;35771;48.978;9.294;2023-02-02T03:39:11;99588.84;;;4.29;100.00
49877;BME280;35771;48.978;9.294;2023-02-02T03:41:38;99607.03;;;4.47;100.00
49877;BME280;35771;48.978;9.294;2023-02-02T03:44:04;99608.66;;;4.59;100.00
49877;BME280;35771;48.978;9.294;2023-02-02T03:46:31;99602.53;;;4.47;100.00
49877;BME280;35771;48.978;9.294;2023-02-02T03:48:57;99599.38;;;4.42;100.00
49877;BME280;35771;48.978;9.294;2023-02-02T03:51:24;99604.75;;;4.42;100.00
49877;BME280;35771;48.978;9.294;2023-02-02T03:53:52;99604.63;;;4.43;100.00
49877;BME280;35771;48.978;9.294;2023-02-02T03:56:18;99584.94;;;4.43;100.00
49877;BME280;35771;48.978;9.294;2023-02-02T03:58:45;99594.81;;;4.42;100.00
49877;BME280;35771;48.978;9.294;2023-02-02T04:01:12;99598.69;;;4.50;100.00
49877;BME280;35771;48.978;9.294;2023-02-02T04:03:38;99594.13;;;4.40;100.00
49877;BME280;35771;48.978;9.294;2023-02-02T04:06:05;99598.38;;;4.43;100.00
49877;BME280;35771;48.978;9.294;2023-02-02T04:08:32;99605.31;;;4.46;100.00
49877;BME280;35771;48.978;9.294;2023-02-02T04:11:00;99606.00;;;4.38;100.00
49877;BME280;35771;48.978;9.294;2023-02-02T04:13:27;99618.53;;;4.49;100.00
49877;BME280;35771;48.978;9.294;2023-02-02T04:15:57;99618.28;;;4.52;100.00
49877;BME280;35771;48.978;9.294;2023-02-02T04:18:24;99598.38;;;4.43;100.00
49877;BME280;35771;48.978;9.294;2023-02-02T04:20:55;99626.78;;;4.57;100.00
49877;BME280;35771;48.978;9.294;2023-02-02T04:23:21;99601.78;;;4.45;100.00
49877;BME280;35771;48.978;9.294;2023-02-02T04:25:48;99640.56;;;4.64;100.00
49877;BME280;35771;48.978;9.294;2023-02-02T04:28:16;99627.91;;;4.54;100.00
49877;BME280;35771;48.978;9.294;2023-02-02T04:30:43;99634.72;;;4.58;100.00
49877;BME280;35771;48.978;9.294;2023-02-02T04:33:10;99656.47;;;4.67;100.00
49877;BME280;35771;48.978;9.294;2023-02-02T04:35:36;99658.91;;;4.70;100.00
49877;BME280;35771;48.978;9.294;2023-02-02T04:38:03;99664.13;;;4.71;100.00
49877;BME280;35771;48.978;9.294;2023-02-02T04:40:29;99632.16;;;4.57;100.00
49877;BME280;35771;48.978;9.294;2023-02-02T04:42:56;99634.03;;;4.56;100.00
49877;BME280;35771;48.978;9.294;2023-02-02T04:45:25;99639.72;;;4.63;100.00
49877;BME280;35771;48.978;9.294;2023-02-02T04:47:51;99641.56;;;4.63;100.00
49877;BME280;35771;48.978;9.294;2023-02-02T04:50:18;99665.28;;;4.78;100.00
49877;BME280;35771;48.978;9.294;2023-02-02T04:52:44;99656.56;;;4.65;100.00
49877;BME280;35771;48.978;9.294;2023-02-02T04:55:11;99673.50;;;4.77;100.00
49877;BME280;35771;48.978;9.294;2023-02-02T04:57:37;99680.75;;;4.76;100.00
49877;BME280;35771;48.978;9.294;2023-02-02T05:00:05;99648.19;;;4.58;100.00
49877;BME280;35771;48.978;9.294;2023-02-02T05:02:36;99680.75;;;4.76;100.00
49877;BME280;35771;48.978;9.294;2023-02-02T05:05:03;99657.13;;;4.59;100.00
49877;BME280;35771;48.978;9.294;2023-02-02T05:07:29;99696.34;;;4.73;100.00
49877;BME280;35771;48.978;9.294;2023-02-02T05:09:56;99671.88;;;4.65;100.00
49877;BME280;35771;48.978;9.294;2023-02-02T05:12:23;99672.03;;;4.63;100.00
49877;BME280;35771;48.978;9.294;2023-02-02T05:14:49;99683.78;;;4.62;100.00
49877;BME280;35771;48.978;9.294;2023-02-02T05:17:16;99684.69;;;4.72;100.00
49877;BME280;35771;48.978;9.294;2023-02-02T05:19:43;99671.19;;;4.63;100.00
49877;BME280;35771;48.978;9.294;2023-02-02T05:22:10;99663.50;;;4.58;100.00
49877;BME280;35771;48.978;9.294;2023-02-02T05:24:36;99666.91;;;4.60;100.00
49877;BME280;35771;48.978;9.294;2023-02-02T05:27:03;99681.00;;;4.73;100.00
49877;BME280;35771;48.978;9.294;2023-02-02T05:29:30;99668.63;;;4.61;100.00
49877;BME280;35771;48.978;9.294;2023-02-02T05:31:57;99673.13;;;4.60;100.00
49877;BME280;35771;48.978;9.294;2023-02-02T05:34:23;99675.81;;;4.60;100.00
49877;BME280;35771;48.978;9.294;2023-02-02T05:36:52;99686.34;;;4.64;100.00
49877;BME280;35771;48.978;9.294;2023-02-02T05:39:18;99680.72;;;4.67;100.00
49877;BME280;35771;48.978;9.294;2023-02-02T05:41:44;99716.19;;;4.82;100.00
49877;BME280;35771;48.978;9.294;2023-02-02T05:44:12;99708.97;;;4.82;100.00
49877;BME280;35771;48.978;9.294;2023-02-02T05:46:39;99708.78;;;4.74;100.00
49877;BME280;35771;48.978;9.294;2023-02-02T05:49:07;99692.91;;;4.71;100.00
49877;BME280;35771;48.978;9.294;2023-02-02T05:51:38;99692.19;;;4.69;100.00
49877;BME280;35771;48.978;9.294;2023-02-02T05:54:07;99715.06;;;4.74;100.00
49877;BME280;35771;48.978;9.294;2023-02-02T05:56:34;99702.25;;;4.67;100.00
49877;BME280;35771;48.978;9.294;2023-02-02T05:59:00;99714.44;;;4.71;100.00
49877;BME280;35771;48.978;9.294;2023-02-02T06:01:29;99721.72;;;4.80;100.00
49877;BME280;35771;48.978;9.294;2023-02-02T06:03:58;99697.09;;;4.64;100.00
49877;BME280;35771;48.978;9.294;2023-02-02T06:06:25;99714.72;;;4.68;100.00
49877;BME280;35771;48.978;9.294;2023-02-02T06:08:52;99726.66;;;4.75;100.00
49877;BME280;35771;48.978;9.294;2023-02-02T06:11:19;99701.34;;;4.56;100.00
49877;BME280;35771;48.978;9.294;2023-02-02T06:13:46;99718.28;;;4.68;100.00
49877;BME280;35771;48.978;9.294;2023-02-02T06:16:13;99727.34;;;4.67;100.00
49877;BME280;35771;48.978;9.294;2023-02-02T06:18:39;99718.78;;;4.62;100.00
49877;BME280;35771;48.978;9.294;2023-02-02T06:21:06;99748.22;;;4.75;100.00
49877;BME280;35771;48.978;9.294;2023-02-02T06:23:33;99716.34;;;4.59;100.00
49877;BME280;35771;48.978;9.294;2023-02-02T06:26:00;99728.59;;;4.63;100.00
49877;BME280;35771;48.978;9.294;2023-02-02T06:28:29;99727.59;;;4.64;100.00
49877;BME280;35771;48.978;9.294;2023-02-02T06:30:55;99721.75;;;4.59;100.00
49877;BME280;35771;48.978;9.294;2023-02-02T06:33:22;99740.53;;;4.70;100.00
49877;BME280;35771;48.978;9.294;2023-02-02T06:35:48;99760.72;;;4.76;100.00
49877;BME280;35771;48.978;9.294;2023-02-02T06:38:15;99724.31;;;4.60;100.00
49877;BME280;35771;48.978;9.294;2023-02-02T06:40:43;99727.13;;;4.59;100.00
49877;BME280;35771;48.978;9.294;2023-02-02T06:43:09;99730.56;;;4.61;100.00
49877;BME280;35771;48.978;9.294;2023-02-02T06:45:40;99748.22;;;4.75;100.00
49877;BME280;35771;48.978;9.294;2023-02-02T06:48:07;99750.19;;;4.73;100.00
49877;BME280;35771;48.978;9.294;2023-02-02T06:50:35;99757.75;;;4.79;100.00
49877;BME280;35771;48.978;9.294;2023-02-02T06:53:02;99726.88;;;4.62;100.00
49877;BME280;35771;48.978;9.294;2023-02-02T06:55:32;99751.63;;;4.77;100.00
49877;BME280;35771;48.978;9.294;2023-02-02T06:57:59;99758.31;;;4.83;100.00
49877;BME280;35771;48.978;9.294;2023-02-02T07:00:27;99747.25;;;4.76;100.00
49877;BME280;35771;48.978;9.294;2023-02-02T07:02:55;99737.13;;;4.68;100.00
49877;BME280;35771;48.978;9.294;2023-02-02T07:05:23;99757.34;;;4.84;100.00
49877;BME280;35771;48.978;9.294;2023-02-02T07:07:50;99742.66;;;4.67;100.00
49877;BME280;35771;48.978;9.294;2023-02-02T07:10:17;99738.25;;;4.66;100.00
49877;BME280;35771;48.978;9.294;2023-02-02T07:12:44;99743.38;;;4.69;100.00
49877;BME280;35771;48.978;9.294;2023-02-02T07:15:10;99736.38;;;4.66;100.00
49877;BME280;35771;48.978;9.294;2023-02-02T07:17:37;99757.88;;;4.77;100.00
49877;BME280;35771;48.978;9.294;2023-02-02T07:20:06;99762.00;;;4.82;100.00
49877;BME280;35771;48.978;9.294;2023-02-02T07:22:32;99756.03;;;4.78;100.00
49877;BME280;35771;48.978;9.294;2023-02-02T07:24:59;99764.69;;;4.82;100.00
49877;BME280;35771;48.978;9.294;2023-02-02T07:27:25;99737.25;;;4.67;100.00
49877;BME280;35771;48.978;9.294;2023-02-02T07:29:52;99733.44;;;4.69;100.00
49877;BME280;35771;48.978;9.294;2023-02-02T07:32:18;99760.88;;;4.84;100.00
49877;BME280;35771;48.978;9.294;2023-02-02T07:34:45;99752.78;;;4.84;100.00
49877;BME280;35771;48.978;9.294;2023-02-02T07:37:13;99748.78;;;4.78;100.00
49877;BME280;35771;48.978;9.294;2023-02-02T07:39:39;99734.88;;;4.73;100.00
49877;BME280;35771;48.978;9.294;2023-02-02T07:42:09;99775.81;;;4.88;100.00
49877;BME280;35771;48.978;9.294;2023-02-02T07:44:36;99771.66;;;4.84;100.00
49877;BME280;35771;48.978;9.294;2023-02-02T07:47:03;99761.28;;;4.79;100.00
49877;BME280;35771;48.978;9.294;2023-02-02T07:49:30;99748.09;;;4.76;100.00
49877;BME280;35771;48.978;9.294;2023-02-02T07:51:56;99759.56;;;4.78;100.00
49877;BME280;35771;48.978;9.294;2023-02-02T07:54:24;99733.16;;;4.72;100.00
49877;BME280;35771;48.978;9.294;2023-02-02T07:56:51;99743.66;;;4.75;100.00
49877;BME280;35771;48.978;9.294;2023-02-02T07:59:17;99751.81;;;4.85;100.00
49877;BME280;35771;48.978;9.294;2023-02-02T08:01:44;99755.91;;;4.79;100.00
49877;BME280;35771;48.978;9.294;2023-02-02T08:04:10;99787.75;;;4.95;100.00
49877;BME280;35771;48.978;9.294;2023-02-02T08:06:38;99776.50;;;4.90;100.00
49877;BME280;35771;48.978;9.294;2023-02-02T08:09:07;99779.59;;;4.86;100.00
49877;BME280;35771;48.978;9.294;2023-02-02T08:11:36;99781.91;;;4.90;100.00
49877;BME280;35771;48.978;9.294;2023-02-02T08:14:04;99798.41;;;4.97;100.00
49877;BME280;35771;48.978;9.294;2023-02-02T08:16:31;99773.63;;;4.82;100.00
49877;BME280;35771;48.978;9.294;2023-02-02T08:18:58;99789.72;;;4.93;100.00
49877;BME280;35771;48.978;9.294;2023-02-02T08:21:25;99782.00;;;4.79;100.00
49877;BME280;35771;48.978;9.294;2023-02-02T08:23:52;99797.28;;;4.78;100.00
49877;BME280;35771;48.978;9.294;2023-02-02T08:26:21;99807.28;;;4.88;100.00
49877;BME280;35771;48.978;9.294;2023-02-02T08:28:51;99790.50;;;4.84;100.00
49877;BME280;35771;48.978;9.294;2023-02-02T08:31:21;99808.41;;;4.85;100.00
49877;BME280;35771;48.978;9.294;2023-02-02T08:33:48;99804.47;;;4.89;100.00
49877;BME280;35771;48.978;9.294;2023-02-02T08:36:15;99813.03;;;4.83;100.00
49877;BME280;35771;48.978;9.294;2023-02-02T08:38:42;99797.75;;;4.84;100.00
49877;BME280;35771;48.978;9.294;2023-02-02T08:41:11;99813.69;;;4.96;100.00
49877;BME280;35771;48.978;9.294;2023-02-02T08:43:38;99822.81;;;5.05;100.00
49877;BME280;35771;48.978;9.294;2023-02-02T08:46:07;99799.25;;;4.97;100.00
49877;BME280;35771;48.978;9.294;2023-02-02T08:48:34;99780.66;;;4.94;100.00
49877;BME280;35771;48.978;9.294;2023-02-02T08:51:02;99821.19;;;5.14;100.00
49877;BME280;35771;48.978;9.294;2023-02-02T08:53:29;99790.19;;;4.99;100.00
49877;BME280;35771;48.978;9.294;2023-02-02T08:55:57;99803.25;;;5.03;100.00
49877;BME280;35771;48.978;9.294;2023-02-02T08:58:24;99834.13;;;5.20;100.00
49877;BME280;35771;48.978;9.294;2023-02-02T09:00:50;99822.56;;;5.08;100.00
49877;BME280;35771;48.978;9.294;2023-02-02T09:03:18;99830.38;;;5.11;100.00
49877;BME280;35771;48.978;9.294;2023-02-02T09:05:45;99795.31;;;5.02;100.00
49877;BME280;35771;48.978;9.294;2023-02-02T09:08:11;99823.56;;;5.07;100.00
49877;BME280;35771;48.978;9.294;2023-02-02T09:10:38;99838.31;;;5.13;100.00
49877;BME280;35771;48.978;9.294;2023-02-02T09:13:04;99836.25;;;5.17;100.00
49877;BME280;35771;48.978;9.294;2023-02-02T09:15:31;99823.56;;;5.07;100.00
49877;BME280;35771;48.978;9.294;2023-02-02T09:17:58;99825.38;;;5.07;100.00
49877;BME280;35771;48.978;9.294;2023-02-02T09:20:26;99826.31;;;5.17;100.00
49877;BME280;35771;48.978;9.294;2023-02-02T09:22:54;99809.97;;;5.09;100.00
49877;BME280;35771;48.978;9.294;2023-02-02T09:25:21;99845.34;;;5.25;100.00
49877;BME280;35771;48.978;9.294;2023-02-02T09:27:49;99837.72;;;5.30;100.00
49877;BME280;35771;48.978;9.294;2023-02-02T09:30:16;99834.03;;;5.31;100.00
49877;BME280;35771;48.978;9.294;2023-02-02T09:32:43;99844.44;;;5.36;100.00
49877;BME280;35771;48.978;9.294;2023-02-02T09:35:10;99826.38;;;5.27;100.00
49877;BME280;35771;48.978;9.294;2023-02-02T09:37:38;99817.81;;;5.22;100.00
49877;BME280;35771;48.978;9.294;2023-02-02T09:40:05;99836.41;;;5.25;100.00
49877;BME280;35771;48.978;9.294;2023-02-02T09:42:45;99843.13;;;5.30;100.00
49877;BME280;35771;48.978;9.294;2023-02-02T09:45:22;99842.84;;;5.34;100.00
49877;BME280;35771;48.978;9.294;2023-02-02T09:47:53;99843.44;;;5.16;100.00
49877;BME280;35771;48.978;9.294;2023-02-02T09:50:36;99847.72;;;5.19;100.00
49877;BME280;35771;48.978;9.294;2023-02-02T09:53:11;99861.44;;;5.37;100.00
49877;BME280;35771;48.978;9.294;2023-02-02T09:55:41;99845.16;;;5.17;100.00
49877;BME280;35771;48.978;9.294;2023-02-02T09:58:14;99852.16;;;5.20;100.00
49877;BME280;35771;48.978;9.294;2023-02-02T10:00:46;99881.16;;;5.37;100.00
49877;BME280;35771;48.978;9.294;2023-02-02T10:03:19;99860.28;;;5.29;100.00
49877;BME280;35771;48.978;9.294;2023-02-02T10:05:51;99859.56;;;5.27;100.00
49877;BME280;35771;48.978;9.294;2023-02-02T10:08:27;99851.00;;;5.22;100.00
49877;BME280;35771;48.978;9.294;2023-02-02T10:10:57;99849.88;;;5.25;100.00
49877;BME280;35771;48.978;9.294;2023-02-02T10:13:30;99864.94;;;5.27;100.00
49877;BME280;35771;48.978;9.294;2023-02-02T10:16:05;99854.31;;;5.26;100.00
49877;BME280;35771;48.978;9.294;2023-02-02T10:18:40;99846.63;;;5.21;100.00
49877;BME280;35771;48.978;9.294;2023-02-02T10:21:10;99840.50;;;5.19;100.00
49877;BME280;35771;48.978;9.294;2023-02-02T10:23:43;99845.22;;;5.27;100.00
49877;BME280;35771;48.978;9.294;2023-02-02T10:26:15;99838.16;;;5.36;100.00
49877;BME280;35771;48.978;9.294;2023-02-02T10:28:52;99844.03;;;5.41;100.00
49877;BME280;35771;48.978;9.294;2023-02-02T10:31:33;99860.09;;;5.52;100.00
49877;BME280;35771;48.978;9.294;2023-02-02T10:34:09;99849.72;;;5.47;100.00
49877;BME280;35771;48.978;9.294;2023-02-02T10:36:49;99857.53;;;5.50;100.00
49877;BME280;35771;48.978;9.294;2023-02-02T10:39:25;99837.94;;;5.48;100.00
49877;BME280;35771;48.978;9.294;2023-02-02T10:42:04;99854.13;;;5.48;100.00
49877;BME280;35771;48.978;9.294;2023-02-02T10:44:41;99857.84;;;5.57;100.00
49877;BME280;35771;48.978;9.294;2023-02-02T10:47:15;99852.13;;;5.50;100.00
49877;BME280;35771;48.978;9.294;2023-02-02T10:49:45;99865.69;;;5.60;100.00
49877;BME280;35771;48.978;9.294;2023-02-02T10:52:20;99864.91;;;5.48;100.00
49877;BME280;35771;48.978;9.294;2023-02-02T10:54:55;99865.59;;;5.41;100.00
49877;BME280;35771;48.978;9.294;2023-02-02T10:57:44;99872.72;;;5.52;100.00
49877;BME280;35771;48.978;9.294;2023-02-02T11:00:18;99871.56;;;5.44;100.00
49877;BME280;35771;48.978;9.294;2023-02-02T11:02:46;99868.34;;;5.29;100.00
49877;BME280;35771;48.978;9.294;2023-02-02T11:05:18;99866.81;;;5.27;100.00
49877;BME280;35771;48.978;9.294;2023-02-02T11:08:11;99870.34;;;5.27;100.00
49877;BME280;35771;48.978;9.294;2023-02-02T11:10:39;99874.56;;;5.20;100.00
49877;BME280;35771;48.978;9.294;2023-02-02T11:13:10;99862.19;;;5.18;100.00
49877;BME280;35771;48.978;9.294;2023-02-02T11:15:41;99865.22;;;5.24;100.00
49877;BME280;35771;48.978;9.294;2023-02-02T11:18:27;99869.22;;;5.30;100.00
49877;BME280;35771;48.978;9.294;2023-02-02T11:20:54;99854.16;;;5.27;100.00
49877;BME280;35771;48.978;9.294;2023-02-02T11:23:22;99879.34;;;5.38;100.00
49877;BME280;35771;48.978;9.294;2023-02-02T11:26:00;99864.16;;;5.37;100.00
49877;BME280;35771;48.978;9.294;2023-02-02T11:28:32;99865.19;;;5.45;100.00
49877;BME280;35771;48.978;9.294;2023-02-02T11:31:00;99872.88;;;5.50;100.00
49877;BME280;35771;48.978;9.294;2023-02-02T11:33:29;99879.97;;;5.51;100.00
49877;BME280;35771;48.978;9.294;2023-02-02T11:35:59;99865.31;;;5.44;100.00
49877;BME280;35771;48.978;9.294;2023-02-02T11:38:27;99873.41;;;5.44;100.00
49877;BME280;35771;48.978;9.294;2023-02-02T11:41:00;99868.69;;;5.36;100.00
49877;BME280;35771;48.978;9.294;2023-02-02T11:43:32;99880.34;;;5.46;100.00
49877;BME280;35771;48.978;9.294;2023-02-02T11:46:06;99853.63;;;5.34;100.00
49877;BME280;35771;48.978;9.294;2023-02-02T11:48:49;99849.69;;;5.38;100.00
49877;BME280;35771;48.978;9.294;2023-02-02T11:51:21;99872.66;;;5.42;100.00
49877;BME280;35771;48.978;9.294;2023-02-02T11:53:49;99858.91;;;5.45;100.00
49877;BME280;35771;48.978;9.294;2023-02-02T11:56:26;99854.94;;;5.39;100.00
49877;BME280;35771;48.978;9.294;2023-02-02T11:58:54;99875.22;;;5.43;100.00
49877;BME280;35771;48.978;9.294;2023-02-02T12:01:24;99873.69;;;5.41;100.00
49877;BME280;35771;48.978;9.294;2023-02-02T12:03:52;99855.16;;;5.26;100.00
49877;BME280;35771;48.978;9.294;2023-02-02T12:06:20;99860.66;;;5.25;100.00
49877;BME280;35771;48.978;9.294;2023-02-02T12:08:47;99843.31;;;5.18;100.00
49877;BME280;35771;48.978;9.294;2023-02-02T12:11:30;99860.66;;;5.25;100.00
49877;BME280;35771;48.978;9.294;2023-02-02T12:14:10;99852.28;;;5.18;100.00
49877;BME280;35771;48.978;9.294;2023-02-02T12:16:49;99866.34;;;5.22;100.00
49877;BME280;35771;48.978;9.294;2023-02-02T12:19:28;99861.78;;;5.22;100.00
49877;BME280;35771;48.978;9.294;2023-02-02T12:22:09;99863.78;;;5.20;100.00
49877;BME280;35771;48.978;9.294;2023-02-02T12:24:49;99852.53;;;5.15;100.00
49877;BME280;35771;48.978;9.294;2023-02-02T12:27:23;99862.25;;;5.27;100.00
49877;BME280;35771;48.978;9.294;2023-02-02T12:30:21;99870.00;;;5.21;100.00
49877;BME280;35771;48.978;9.294;2023-02-02T12:33:09;99865.16;;;5.14;100.00
49877;BME280;35771;48.978;9.294;2023-02-02T12:35:49;99845.13;;;5.07;100.00
49877;BME280;35771;48.978;9.294;2023-02-02T12:38:28;99850.44;;;4.97;100.00
49877;BME280;35771;48.978;9.294;2023-02-02T12:41:08;99860.28;;;5.08;100.00
49877;BME280;35771;48.978;9.294;2023-02-02T12:43:44;99851.91;;;5.02;100.00
49877;BME280;35771;48.978;9.294;2023-02-02T12:46:20;99856.28;;;5.03;100.00
49877;BME280;35771;48.978;9.294;2023-02-02T12:52:15;99857.72;;;5.07;100.00
49877;BME280;35771;48.978;9.294;2023-02-02T12:55:00;99857.03;;;5.05;100.00
49877;BME280;35771;48.978;9.294;2023-02-02T12:57:42;99872.41;;;5.14;100.00
49877;BME280;35771;48.978;9.294;2023-02-02T13:00:21;99863.47;;;5.13;100.00
49877;BME280;35771;48.978;9.294;2023-02-02T13:03:02;99861.88;;;5.11;100.00
49877;BME280;35771;48.978;9.294;2023-02-02T13:05:44;99865.56;;;5.10;100.00
49877;BME280;35771;48.978;9.294;2023-02-02T13:08:20;99861.53;;;5.04;100.00
49877;BME280;35771;48.978;9.294;2023-02-02T13:10:53;99861.53;;;5.04;100.00
49877;BME280;35771;48.978;9.294;2023-02-02T13:13:23;99847.88;;;4.96;100.00
49877;BME280;35771;48.978;9.294;2023-02-02T13:15:56;99866.03;;;5.15;100.00
49877;BME280;35771;48.978;9.294;2023-02-02T13:18:26;99867.00;;;5.14;100.00